createdAt,value
2019-05-01T00:00:23.956Z,0.00
2019-05-01T00:01:24.143Z,0.00
2019-05-01T00:02:24.331Z,0.00
2019-05-01T00:03:24.515Z,0.00
2019-05-01T00:04:24.700Z,0.00
2019-05-01T00:05:24.886Z,0.00
2019-05-01T00:06:25.069Z,0.00
2019-05-01T00:07:25.254Z,0.00
2019-05-01T00:08:25.438Z,0.00
2019-05-01T00:09:25.621Z,0.00
2019-05-01T00:10:25.812Z,0.00
2019-05-01T00:11:26.001Z,0.00
2019-05-01T00:12:26.184Z,0.00
2019-05-01T00:13:26.366Z,0.00
2019-05-01T00:14:26.552Z,0.00
2019-05-01T00:15:26.737Z,0.00
2019-05-01T00:16:26.921Z,0.00
2019-05-01T00:17:27.818Z,0.00
2019-05-01T00:18:27.291Z,0.00
2019-05-01T00:19:27.474Z,0.00
2019-05-01T00:20:27.658Z,0.00
2019-05-01T00:21:27.841Z,0.00
2019-05-01T00:22:28.024Z,0.00
2019-05-01T00:23:28.215Z,0.00
2019-05-01T00:24:28.391Z,0.00
2019-05-01T00:25:28.579Z,0.00
2019-05-01T00:26:28.767Z,0.00
2019-05-01T00:27:28.951Z,0.00
2019-05-01T00:28:29.137Z,0.00
2019-05-01T00:29:29.315Z,0.00
2019-05-01T00:30:30.367Z,0.00
2019-05-01T00:31:29.689Z,0.00
2019-05-01T00:32:29.877Z,0.00
2019-05-01T00:33:30.058Z,0.00
2019-05-01T00:34:30.240Z,0.00
2019-05-01T00:35:30.425Z,0.00
2019-05-01T00:36:30.612Z,0.00
2019-05-01T00:37:30.797Z,0.00
2019-05-01T00:38:30.978Z,0.00
2019-05-01T00:39:31.163Z,0.00
2019-05-01T00:40:31.356Z,0.00
2019-05-01T00:41:31.536Z,0.00
2019-05-01T00:42:31.718Z,0.00
2019-05-01T00:43:31.905Z,0.00
2019-05-01T00:44:32.110Z,0.00
2019-05-01T00:45:32.289Z,0.00
2019-05-01T00:46:32.477Z,0.00
2019-05-01T00:47:32.670Z,0.00
2019-05-01T00:48:32.865Z,0.00
2019-05-01T00:49:33.048Z,0.00
2019-05-01T00:50:33.233Z,0.00
2019-05-01T00:51:33.420Z,0.00
2019-05-01T00:52:33.605Z,0.00
2019-05-01T00:53:33.791Z,0.00
2019-05-01T00:54:33.974Z,0.00
2019-05-01T00:55:34.168Z,0.00
2019-05-01T00:56:34.353Z,0.00
2019-05-01T00:57:34.542Z,0.00
2019-05-01T00:58:34.718Z,0.00
2019-05-01T00:59:34.900Z,0.00
2019-05-01T01:00:42.922Z,0.00
2019-05-01T01:01:35.276Z,0.00
2019-05-01T01:02:35.462Z,0.00
2019-05-01T01:03:35.640Z,0.00
2019-05-01T01:04:35.835Z,0.00
2019-05-01T01:05:36.018Z,0.00
2019-05-01T01:06:36.204Z,0.00
2019-05-01T01:07:36.387Z,0.00
2019-05-01T01:08:36.583Z,0.00
2019-05-01T01:09:36.762Z,0.00
2019-05-01T01:10:36.954Z,0.00
2019-05-01T01:11:37.138Z,0.00
2019-05-01T01:12:37.327Z,0.00
2019-05-01T01:13:37.511Z,0.00
2019-05-01T01:14:37.695Z,0.00
2019-05-01T01:15:37.873Z,0.00
2019-05-01T01:16:38.066Z,0.00
2019-05-01T01:17:38.243Z,0.00
2019-05-01T01:18:38.435Z,0.00
2019-05-01T01:19:38.621Z,0.00
2019-05-01T01:20:38.812Z,0.00
2019-05-01T01:21:38.991Z,0.00
2019-05-01T01:22:39.183Z,0.00
2019-05-01T01:23:39.369Z,0.00
2019-05-01T01:24:39.559Z,0.00
2019-05-01T01:25:39.737Z,0.00
2019-05-01T01:26:39.930Z,0.00
2019-05-01T01:27:40.113Z,0.00
2019-05-01T01:28:40.305Z,0.00
2019-05-01T01:29:40.478Z,0.00
2019-05-01T01:30:40.668Z,0.00
2019-05-01T01:31:40.857Z,0.00
2019-05-01T01:32:41.048Z,0.00
2019-05-01T01:33:41.220Z,0.00
2019-05-01T01:34:41.422Z,0.00
2019-05-01T01:35:41.605Z,0.00
2019-05-01T01:36:41.792Z,0.00
2019-05-01T01:37:41.972Z,0.00
2019-05-01T01:38:42.164Z,0.00
2019-05-01T01:39:42.348Z,0.00
2019-05-01T01:40:42.531Z,0.00
2019-05-01T01:41:42.726Z,0.00
2019-05-01T01:42:42.905Z,0.00
2019-05-01T01:43:43.088Z,0.00
2019-05-01T01:44:43.275Z,0.00
2019-05-01T01:45:43.459Z,0.00
2019-05-01T01:46:43.641Z,0.00
2019-05-01T01:47:43.829Z,0.00
2019-05-01T01:48:44.011Z,0.00
2019-05-01T01:49:44.194Z,0.00
2019-05-01T01:50:44.380Z,0.00
2019-05-01T01:51:44.569Z,0.00
2019-05-01T01:52:44.749Z,0.00
2019-05-01T01:53:44.936Z,0.00
2019-05-01T01:54:45.122Z,0.00
2019-05-01T01:55:45.339Z,0.00
2019-05-01T01:56:45.500Z,0.00
2019-05-01T01:57:45.684Z,0.00
2019-05-01T01:58:45.871Z,0.00
2019-05-01T01:59:46.050Z,0.00
2019-05-01T02:00:46.239Z,0.00
2019-05-01T02:01:46.424Z,0.00
2019-05-01T02:02:46.601Z,0.00
2019-05-01T02:03:46.787Z,0.00
2019-05-01T02:04:46.976Z,0.00
2019-05-01T02:05:47.163Z,0.00
2019-05-01T02:06:47.347Z,0.00
2019-05-01T02:07:47.535Z,0.00
2019-05-01T02:08:56.318Z,0.00
2019-05-01T02:09:48.764Z,0.00
2019-05-01T02:10:48.100Z,0.00
2019-05-01T02:11:48.284Z,0.00
2019-05-01T02:12:48.471Z,0.00
2019-05-01T02:13:48.655Z,0.00
2019-05-01T02:14:48.865Z,0.00
2019-05-01T02:15:49.045Z,0.00
2019-05-01T02:16:49.245Z,0.00
2019-05-01T02:17:50.148Z,0.00
2019-05-01T02:18:49.586Z,0.00
2019-05-01T02:19:49.770Z,0.00
2019-05-01T02:20:49.954Z,0.00
2019-05-01T02:21:50.140Z,0.00
2019-05-01T02:22:50.331Z,0.00
2019-05-01T02:23:50.514Z,0.00
2019-05-01T02:24:50.697Z,0.00
2019-05-01T02:25:50.893Z,0.00
2019-05-01T02:26:51.071Z,0.00
2019-05-01T02:27:51.257Z,0.00
2019-05-01T02:28:51.440Z,0.00
2019-05-01T02:29:51.632Z,0.00
2019-05-01T02:30:51.819Z,0.00
2019-05-01T02:31:52.005Z,0.00
2019-05-01T02:32:52.185Z,0.00
2019-05-01T02:33:52.378Z,0.00
2019-05-01T02:34:52.559Z,0.00
2019-05-01T02:35:52.745Z,0.00
2019-05-01T02:36:52.930Z,0.00
2019-05-01T02:37:53.112Z,0.00
2019-05-01T02:38:53.307Z,0.00
2019-05-01T02:39:53.497Z,0.00
2019-05-01T02:40:53.688Z,0.00
2019-05-01T02:41:53.867Z,0.00
2019-05-01T02:42:54.052Z,0.00
2019-05-01T02:43:54.240Z,0.00
2019-05-01T02:44:54.429Z,0.00
2019-05-01T02:45:54.620Z,0.00
2019-05-01T02:46:54.803Z,0.00
2019-05-01T02:47:54.990Z,0.00
2019-05-01T02:48:55.172Z,0.00
2019-05-01T02:49:55.368Z,0.00
2019-05-01T02:50:55.546Z,0.00
2019-05-01T02:51:55.733Z,0.00
2019-05-01T02:52:55.916Z,0.00
2019-05-01T02:53:56.107Z,0.00
2019-05-01T02:54:56.300Z,0.00
2019-05-01T02:55:56.482Z,0.00
2019-05-01T02:56:56.673Z,0.00
2019-05-01T02:57:56.862Z,0.00
2019-05-01T02:58:57.054Z,0.00
2019-05-01T02:59:57.234Z,0.00
2019-05-01T03:00:57.417Z,0.00
2019-05-01T03:01:57.606Z,0.00
2019-05-01T03:02:57.784Z,0.00
2019-05-01T03:03:57.967Z,0.00
2019-05-01T03:04:58.162Z,0.00
2019-05-01T03:05:58.343Z,0.00
2019-05-01T03:06:58.525Z,0.00
2019-05-01T03:07:58.710Z,0.00
2019-05-01T03:08:58.901Z,0.00
2019-05-01T03:09:59.082Z,0.00
2019-05-01T03:10:59.271Z,0.00
2019-05-01T03:14:42.322Z,0.00
2019-05-01T03:15:42.496Z,0.00
2019-05-01T03:16:42.686Z,0.00
2019-05-01T03:17:42.872Z,0.00
2019-05-01T03:18:43.055Z,0.00
2019-05-01T03:19:43.238Z,0.00
2019-05-01T03:20:43.424Z,0.00
2019-05-01T03:21:43.605Z,0.00
2019-05-01T03:22:43.791Z,0.00
2019-05-01T03:23:43.973Z,0.00
2019-05-01T03:24:44.161Z,0.00
2019-05-01T03:25:44.334Z,0.00
2019-05-01T03:26:44.524Z,0.00
2019-05-01T03:27:44.708Z,0.00
2019-05-01T03:28:44.898Z,0.00
2019-05-01T03:29:45.081Z,0.00
2019-05-01T03:30:45.265Z,0.00
2019-05-01T03:32:12.914Z,0.00
2019-05-01T03:32:45.630Z,0.00
2019-05-01T03:33:45.827Z,0.00
2019-05-01T03:34:51.965Z,0.00
2019-05-01T03:35:46.187Z,0.00
2019-05-01T03:36:46.374Z,0.00
2019-05-01T03:37:46.547Z,0.00
2019-05-01T03:38:46.730Z,0.00
2019-05-01T03:39:46.911Z,0.00
2019-05-01T03:40:47.096Z,0.00
2019-05-01T03:41:47.303Z,0.00
2019-05-01T03:42:47.492Z,0.00
2019-05-01T03:43:47.665Z,5.63
2019-05-01T03:44:47.837Z,5.63
2019-05-01T03:45:47.989Z,5.63
2019-05-01T03:46:48.181Z,5.63
2019-05-01T03:47:48.413Z,5.63
2019-05-01T03:48:48.568Z,5.63
2019-05-01T03:49:48.757Z,11.25
2019-05-01T03:50:48.943Z,11.25
2019-05-01T03:51:49.114Z,11.25
2019-05-01T03:52:49.309Z,11.25
2019-05-01T03:53:49.497Z,11.25
2019-05-01T03:54:49.697Z,16.88
2019-05-01T03:55:49.860Z,16.88
2019-05-01T03:56:50.050Z,16.88
2019-05-01T03:57:50.226Z,22.50
2019-05-01T03:58:50.427Z,22.50
2019-05-01T03:59:50.584Z,22.50
2019-05-01T04:00:50.773Z,28.13
2019-05-01T04:01:50.961Z,28.13
2019-05-01T04:02:51.138Z,28.13
2019-05-01T04:03:51.328Z,33.75
2019-05-01T04:04:51.520Z,33.75
2019-05-01T04:05:51.701Z,39.38
2019-05-01T04:06:51.877Z,39.38
2019-05-01T04:07:52.073Z,39.38
2019-05-01T04:08:52.262Z,45.00
2019-05-01T04:09:52.447Z,45.00
2019-05-01T04:10:52.624Z,50.63
2019-05-01T04:11:52.821Z,50.63
2019-05-01T04:12:53.019Z,56.25
2019-05-01T04:13:53.199Z,56.25
2019-05-01T04:14:53.374Z,61.88
2019-05-01T04:15:53.564Z,61.88
2019-05-01T04:16:53.745Z,67.50
2019-05-01T04:17:53.940Z,73.13
2019-05-01T04:18:54.119Z,73.13
2019-05-01T04:19:54.313Z,78.75
2019-05-01T04:20:54.495Z,84.38
2019-05-01T04:21:54.703Z,84.38
2019-05-01T04:22:54.857Z,90.00
2019-05-01T04:23:55.048Z,95.63
2019-05-01T04:24:55.225Z,101.25
2019-05-01T04:25:55.409Z,106.88
2019-05-01T04:26:55.588Z,106.88
2019-05-01T04:27:58.652Z,112.50
2019-05-01T04:28:55.953Z,118.13
2019-05-01T04:29:56.132Z,118.13
2019-05-01T04:30:56.315Z,123.75
2019-05-01T04:31:56.495Z,129.38
2019-05-01T04:32:56.684Z,129.38
2019-05-01T04:33:56.870Z,135.00
2019-05-01T04:34:57.070Z,146.25
2019-05-01T04:35:57.244Z,151.88
2019-05-01T04:36:57.427Z,163.13
2019-05-01T04:37:57.605Z,168.75
2019-05-01T04:38:57.791Z,168.75
2019-05-01T04:39:57.988Z,174.38
2019-05-01T04:40:58.166Z,174.38
2019-05-01T04:41:58.347Z,180.00
2019-05-01T04:42:58.529Z,180.00
2019-05-01T04:43:58.706Z,185.63
2019-05-01T04:44:58.894Z,185.63
2019-05-01T04:45:59.082Z,191.25
2019-05-01T04:46:59.270Z,185.63
2019-05-01T04:47:59.450Z,180.00
2019-05-01T04:48:59.634Z,174.38
2019-05-01T04:49:59.814Z,168.75
2019-05-01T04:50:59.994Z,163.13
2019-05-01T04:52:00.176Z,157.50
2019-05-01T04:53:00.361Z,151.88
2019-05-01T04:54:00.552Z,151.88
2019-05-01T04:55:00.733Z,151.88
2019-05-01T04:56:00.906Z,151.88
2019-05-01T04:57:01.089Z,146.25
2019-05-01T04:58:01.275Z,146.25
2019-05-01T04:59:01.451Z,146.25
2019-05-01T05:00:01.638Z,146.25
2019-05-01T05:01:01.823Z,146.25
2019-05-01T05:02:02.012Z,146.25
2019-05-01T05:03:04.847Z,146.25
2019-05-01T05:04:02.367Z,146.25
2019-05-01T05:05:02.549Z,140.63
2019-05-01T05:06:02.747Z,135.00
2019-05-01T05:07:02.923Z,129.38
2019-05-01T05:08:03.104Z,129.38
2019-05-01T05:09:03.288Z,129.38
2019-05-01T05:10:03.475Z,123.75
2019-05-01T05:11:03.655Z,123.75
2019-05-01T05:12:03.833Z,118.13
2019-05-01T05:13:04.028Z,118.13
2019-05-01T05:14:04.213Z,112.50
2019-05-01T05:15:04.406Z,112.50
2019-05-01T05:16:04.590Z,112.50
2019-05-01T05:17:04.771Z,112.50
2019-05-01T05:18:04.955Z,106.88
2019-05-01T05:19:05.140Z,106.88
2019-05-01T05:20:05.322Z,106.88
2019-05-01T05:21:05.498Z,106.88
2019-05-01T05:22:05.687Z,106.88
2019-05-01T05:23:05.867Z,106.88
2019-05-01T05:24:06.050Z,106.88
2019-05-01T05:25:06.252Z,106.88
2019-05-01T05:26:06.437Z,106.88
2019-05-01T05:27:06.621Z,106.88
2019-05-01T05:28:06.820Z,106.88
2019-05-01T05:29:07.013Z,106.88
2019-05-01T05:30:07.205Z,106.88
2019-05-01T05:31:07.391Z,106.88
2019-05-01T05:32:07.581Z,106.88
2019-05-01T05:33:18.010Z,106.88
2019-05-01T05:34:07.956Z,106.88
2019-05-01T05:35:08.141Z,112.50
2019-05-01T05:36:08.331Z,112.50
2019-05-01T05:37:08.517Z,118.13
2019-05-01T05:38:08.687Z,123.75
2019-05-01T05:39:08.869Z,123.75
2019-05-01T05:40:09.053Z,129.38
2019-05-01T05:41:09.238Z,129.38
2019-05-01T05:42:09.422Z,135.00
2019-05-01T05:43:09.601Z,140.63
2019-05-01T05:44:09.791Z,151.88
2019-05-01T05:45:09.978Z,157.50
2019-05-01T05:46:10.165Z,163.13
2019-05-01T05:47:10.349Z,174.38
2019-05-01T05:48:10.531Z,180.00
2019-05-01T05:49:10.737Z,185.63
2019-05-01T05:50:10.914Z,196.88
2019-05-01T05:51:11.091Z,196.88
2019-05-01T05:52:11.273Z,202.50
2019-05-01T05:53:11.462Z,202.50
2019-05-01T05:54:11.646Z,196.88
2019-05-01T05:55:11.827Z,196.88
2019-05-01T05:56:12.009Z,191.25
2019-05-01T05:57:12.201Z,191.25
2019-05-01T05:58:12.382Z,196.88
2019-05-01T05:59:12.568Z,196.88
2019-05-01T06:00:12.740Z,196.88
2019-05-01T06:01:12.929Z,191.25
2019-05-01T06:02:13.115Z,191.25
2019-05-01T06:03:13.307Z,191.25
2019-05-01T06:04:13.498Z,185.63
2019-05-01T06:05:13.675Z,185.63
2019-05-01T06:06:13.867Z,180.00
2019-05-01T06:07:14.048Z,180.00
2019-05-01T06:08:14.229Z,180.00
2019-05-01T06:09:15.644Z,180.00
2019-05-01T06:10:18.427Z,180.00
2019-05-01T06:11:14.783Z,185.63
2019-05-01T06:12:14.965Z,191.25
2019-05-01T06:13:18.000Z,191.25
2019-05-01T06:14:15.335Z,191.25
2019-05-01T06:15:15.515Z,191.25
2019-05-01T06:16:16.142Z,191.25
2019-05-01T06:17:15.895Z,191.25
2019-05-01T06:18:16.083Z,191.25
2019-05-01T06:19:16.395Z,196.88
2019-05-01T06:20:16.448Z,196.88
2019-05-01T06:21:16.637Z,196.88
2019-05-01T06:22:16.828Z,196.88
2019-05-01T06:23:20.571Z,196.88
2019-05-01T06:24:17.192Z,196.88
2019-05-01T06:25:23.120Z,196.88
2019-05-01T06:26:17.557Z,196.88
2019-05-01T06:27:17.747Z,202.50
2019-05-01T06:28:19.961Z,202.50
2019-05-01T06:29:18.134Z,196.88
2019-05-01T06:30:18.319Z,196.88
2019-05-01T06:31:23.285Z,191.25
2019-05-01T06:32:18.683Z,191.25
2019-05-01T06:33:18.869Z,191.25
2019-05-01T06:34:19.060Z,191.25
2019-05-01T06:35:19.242Z,191.25
2019-05-01T06:36:19.430Z,191.25
2019-05-01T06:37:20.855Z,196.88
2019-05-01T06:38:19.815Z,196.88
2019-05-01T06:39:19.998Z,196.88
2019-05-01T06:40:22.542Z,202.50
2019-05-01T06:41:20.363Z,208.13
2019-05-01T06:42:20.535Z,213.75
2019-05-01T06:43:25.205Z,219.38
2019-05-01T06:44:20.920Z,225.00
2019-05-01T06:45:21.105Z,236.25
2019-05-01T06:46:22.095Z,241.88
2019-05-01T06:47:21.468Z,253.13
2019-05-01T06:48:21.654Z,258.75
2019-05-01T06:49:24.223Z,264.38
2019-05-01T06:50:22.029Z,264.38
2019-05-01T06:51:22.214Z,270.00
2019-05-01T06:52:25.012Z,275.63
2019-05-01T06:53:22.590Z,281.25
2019-05-01T06:54:22.778Z,286.88
2019-05-01T06:55:27.171Z,298.13
2019-05-01T06:56:23.148Z,303.75
2019-05-01T06:57:23.341Z,315.00
2019-05-01T06:58:23.530Z,326.25
2019-05-01T06:59:26.339Z,331.88
2019-05-01T07:00:23.897Z,337.50
2019-05-01T07:01:24.150Z,348.75
2019-05-01T07:02:24.262Z,354.38
2019-05-01T07:03:24.452Z,360.00
2019-05-01T07:04:24.650Z,371.25
2019-05-01T07:05:24.812Z,388.13
2019-05-01T07:06:26.041Z,405.00
2019-05-01T07:07:25.889Z,416.25
2019-05-01T07:08:29.341Z,433.13
2019-05-01T07:09:27.986Z,444.38
2019-05-01T07:10:31.754Z,455.63
2019-05-01T07:11:25.978Z,466.88
2019-05-01T07:12:28.317Z,466.88
2019-05-01T07:13:26.280Z,472.50
2019-05-01T07:14:26.465Z,472.50
2019-05-01T07:15:27.165Z,472.50
2019-05-01T07:16:26.861Z,478.13
2019-05-01T07:17:27.043Z,483.75
2019-05-01T07:18:29.215Z,495.00
2019-05-01T07:19:27.407Z,500.63
2019-05-01T07:20:27.599Z,511.88
2019-05-01T07:21:32.381Z,523.13
2019-05-01T07:22:27.963Z,534.38
2019-05-01T07:23:28.151Z,540.00
2019-05-01T07:24:29.142Z,545.63
2019-05-01T07:25:28.529Z,545.63
2019-05-01T07:26:28.712Z,545.63
2019-05-01T07:27:28.906Z,545.63
2019-05-01T07:28:34.089Z,545.63
2019-05-01T07:29:29.277Z,551.25
2019-05-01T07:30:29.472Z,556.88
2019-05-01T07:31:30.914Z,573.75
2019-05-01T07:32:29.855Z,568.13
2019-05-01T07:33:30.047Z,573.75
2019-05-01T07:34:30.229Z,579.38
2019-05-01T07:35:33.094Z,585.00
2019-05-01T07:36:30.600Z,590.63
2019-05-01T07:37:30.790Z,601.88
2019-05-01T07:38:32.874Z,613.13
2019-05-01T07:39:32.714Z,624.38
2019-05-01T07:40:31.383Z,641.25
2019-05-01T07:41:33.969Z,658.13
2019-05-01T07:42:31.766Z,680.63
2019-05-01T07:43:31.950Z,703.13
2019-05-01T07:44:33.782Z,736.88
2019-05-01T07:45:32.321Z,765.00
2019-05-01T07:46:32.502Z,804.38
2019-05-01T07:47:32.690Z,849.38
2019-05-01T07:48:35.977Z,888.75
2019-05-01T07:49:33.064Z,945.00
2019-05-01T07:50:33.246Z,995.63
2019-05-01T07:51:33.446Z,1051.88
2019-05-01T07:52:33.637Z,1108.13
2019-05-01T07:53:33.827Z,1192.50
2019-05-01T07:54:37.730Z,1282.50
2019-05-01T07:55:34.217Z,1361.25
2019-05-01T07:56:34.397Z,1445.63
2019-05-01T07:57:39.553Z,1597.50
2019-05-01T07:58:34.777Z,1805.63
2019-05-01T07:59:34.975Z,1940.63
2019-05-01T08:00:36.907Z,1985.63
2019-05-01T08:01:35.346Z,2013.75
2019-05-01T08:02:35.547Z,2278.13
2019-05-01T08:03:37.990Z,2638.13
2019-05-01T08:04:36.671Z,2840.63
2019-05-01T08:05:36.116Z,3341.25
2019-05-01T08:06:36.303Z,2610.00
2019-05-01T08:07:36.512Z,2643.75
2019-05-01T08:08:39.542Z,2812.50
2019-05-01T08:09:36.895Z,2458.13
2019-05-01T08:10:37.092Z,2283.75
2019-05-01T08:11:39.113Z,2323.13
2019-05-01T08:12:37.487Z,2345.63
2019-05-01T08:13:37.685Z,2328.75
2019-05-01T08:14:37.877Z,2401.88
2019-05-01T08:15:38.076Z,2503.13
2019-05-01T08:16:42.422Z,2520.00
2019-05-01T08:17:38.452Z,2638.13
2019-05-01T08:18:38.641Z,2801.25
2019-05-01T08:19:39.378Z,2829.38
2019-05-01T08:20:39.014Z,2998.13
2019-05-01T08:21:39.213Z,2666.25
2019-05-01T08:22:39.404Z,2863.13
2019-05-01T08:23:42.571Z,3178.13
2019-05-01T08:24:39.810Z,3065.63
2019-05-01T08:25:39.967Z,4528.13
2019-05-01T08:26:44.252Z,3133.13
2019-05-01T08:27:40.350Z,3082.50
2019-05-01T08:28:40.586Z,2840.63
2019-05-01T08:29:42.172Z,2711.25
2019-05-01T08:30:41.005Z,2638.13
2019-05-01T08:31:41.192Z,2351.25
2019-05-01T08:32:41.386Z,2199.38
2019-05-01T08:33:44.780Z,2148.75
2019-05-01T08:34:48.754Z,2098.13
2019-05-01T08:35:41.958Z,2036.25
2019-05-01T08:36:42.717Z,2002.50
2019-05-01T08:37:42.345Z,1985.63
2019-05-01T08:38:42.534Z,1951.88
2019-05-01T08:39:44.166Z,1935.00
2019-05-01T08:40:42.939Z,1929.38
2019-05-01T08:41:43.119Z,1912.50
2019-05-01T08:42:44.209Z,1929.38
2019-05-01T08:43:43.502Z,1980.00
2019-05-01T08:44:43.684Z,2064.38
2019-05-01T08:45:43.899Z,2160.00
2019-05-01T08:46:46.918Z,2188.13
2019-05-01T08:47:44.278Z,2261.25
2019-05-01T08:48:44.478Z,2362.50
2019-05-01T08:49:49.503Z,2750.63
2019-05-01T08:50:44.857Z,3009.38
2019-05-01T08:51:45.057Z,3217.50
2019-05-01T08:52:47.373Z,3633.75
2019-05-01T08:53:45.443Z,3926.25
2019-05-01T08:54:45.655Z,4680.00
2019-05-01T08:55:47.118Z,4190.63
2019-05-01T08:56:46.028Z,3414.38
2019-05-01T08:57:46.238Z,4950.00
2019-05-01T08:58:49.398Z,6046.88
2019-05-01T08:59:46.631Z,4258.13
2019-05-01T09:00:46.826Z,5675.63
2019-05-01T09:01:50.604Z,5658.75
2019-05-01T09:02:47.213Z,5838.75
2019-05-01T09:03:49.631Z,6041.25
2019-05-01T09:04:47.609Z,5580.00
2019-05-01T09:05:52.037Z,5619.38
2019-05-01T09:06:48.000Z,5557.50
2019-05-01T09:07:51.335Z,5821.88
2019-05-01T09:08:48.389Z,5709.38
2019-05-01T09:09:48.588Z,5563.13
2019-05-01T09:10:49.839Z,5113.13
2019-05-01T09:11:48.991Z,5484.38
2019-05-01T09:12:51.974Z,5495.63
2019-05-01T09:13:49.372Z,5557.50
2019-05-01T09:14:51.188Z,5580.00
2019-05-01T09:15:49.783Z,5585.63
2019-05-01T09:16:52.318Z,5596.88
2019-05-01T09:17:50.182Z,5608.13
2019-05-01T09:18:50.387Z,5647.50
2019-05-01T09:19:50.593Z,5658.75
2019-05-01T09:20:50.789Z,5675.63
2019-05-01T09:21:50.995Z,5647.50
2019-05-01T09:22:51.204Z,5670.00
2019-05-01T09:23:53.221Z,5698.13
2019-05-01T09:24:51.581Z,5726.25
2019-05-01T09:25:51.797Z,5698.13
2019-05-01T09:26:51.985Z,5670.00
2019-05-01T09:27:52.182Z,5681.25
2019-05-01T09:28:52.381Z,5670.00
2019-05-01T09:29:52.865Z,5653.13
2019-05-01T09:30:52.779Z,5619.38
2019-05-01T09:31:52.985Z,5591.25
2019-05-01T09:32:54.489Z,5591.25
2019-05-01T09:33:53.396Z,5546.25
2019-05-01T09:34:53.591Z,5551.88
2019-05-01T09:35:53.789Z,5439.38
2019-05-01T09:36:54.001Z,5501.25
2019-05-01T09:37:54.201Z,5473.13
2019-05-01T09:38:54.397Z,5377.50
2019-05-01T09:39:54.604Z,5366.25
2019-05-01T09:40:54.799Z,5366.25
2019-05-01T09:41:55.006Z,5478.75
2019-05-01T09:42:59.466Z,5478.75
2019-05-01T09:43:55.401Z,5467.50
2019-05-01T09:44:55.608Z,5490.00
2019-05-01T09:45:55.801Z,5546.25
2019-05-01T09:46:56.018Z,5574.38
2019-05-01T09:47:56.229Z,5546.25
2019-05-01T09:48:56.409Z,5619.38
2019-05-01T09:49:56.606Z,5608.13
2019-05-01T09:51:00.820Z,5557.50
2019-05-01T09:51:57.017Z,5535.00
2019-05-01T09:52:59.742Z,5535.00
2019-05-01T09:53:57.476Z,5551.88
2019-05-01T09:54:57.609Z,5574.38
2019-05-01T09:55:57.823Z,5546.25
2019-05-01T09:56:58.023Z,5563.13
2019-05-01T09:57:58.227Z,5630.63
2019-05-01T09:58:58.442Z,5557.50
2019-05-01T09:59:58.644Z,5546.25
2019-05-01T10:00:58.874Z,5551.88
2019-05-01T10:02:03.064Z,5535.00
2019-05-01T10:02:59.249Z,5501.25
2019-05-01T10:03:59.439Z,5467.50
2019-05-01T10:05:02.096Z,5445.00
2019-05-01T10:05:59.837Z,5405.63
2019-05-01T10:07:02.208Z,5355.00
2019-05-01T10:08:04.165Z,5338.13
2019-05-01T10:09:00.452Z,5276.25
2019-05-01T10:10:00.656Z,5191.88
2019-05-01T10:11:05.137Z,5146.88
2019-05-01T10:12:01.062Z,5090.63
2019-05-01T10:13:01.257Z,5045.63
2019-05-01T10:14:04.094Z,5006.25
2019-05-01T10:15:01.671Z,4983.75
2019-05-01T10:16:01.872Z,5023.13
2019-05-01T10:17:02.080Z,5040.00
2019-05-01T10:18:02.328Z,5096.25
2019-05-01T10:19:02.477Z,5135.63
2019-05-01T10:20:02.686Z,5101.88
2019-05-01T10:21:02.884Z,5073.75
2019-05-01T10:22:03.762Z,5079.38
2019-05-01T10:23:03.286Z,5068.13
2019-05-01T10:24:03.483Z,5034.38
2019-05-01T10:25:03.680Z,4966.88
2019-05-01T10:26:03.882Z,4848.75
2019-05-01T10:27:04.081Z,4747.50
2019-05-01T10:28:07.295Z,4702.50
2019-05-01T10:29:04.500Z,4663.13
2019-05-01T10:30:04.688Z,4629.38
2019-05-01T10:31:07.028Z,4471.88
2019-05-01T10:32:05.087Z,4404.38
2019-05-01T10:33:05.283Z,4601.25
2019-05-01T10:34:07.582Z,4646.25
2019-05-01T10:35:05.710Z,4685.63
2019-05-01T10:36:05.901Z,4741.88
2019-05-01T10:37:06.114Z,4831.88
2019-05-01T10:38:09.346Z,4725.00
2019-05-01T10:39:06.513Z,4601.25
2019-05-01T10:40:06.714Z,4635.00
2019-05-01T10:41:09.271Z,4415.63
2019-05-01T10:42:07.119Z,4820.63
2019-05-01T10:43:07.325Z,4719.38
2019-05-01T10:44:07.529Z,4545.00
2019-05-01T10:45:07.738Z,4663.13
2019-05-01T10:46:07.940Z,4696.88
2019-05-01T10:47:08.176Z,4623.75
2019-05-01T10:48:08.344Z,4567.50
2019-05-01T10:49:08.551Z,4595.63
2019-05-01T10:50:08.743Z,4606.88
2019-05-01T10:51:08.945Z,4466.25
2019-05-01T10:52:14.300Z,4359.38
2019-05-01T10:53:09.343Z,2851.88
2019-05-01T10:54:09.546Z,4438.13
2019-05-01T10:55:09.752Z,4325.63
2019-05-01T10:56:09.955Z,4460.63
2019-05-01T10:57:12.831Z,2019.38
2019-05-01T10:58:12.762Z,1620.00
2019-05-01T10:59:10.559Z,1597.50
2019-05-01T11:00:10.758Z,4488.75
2019-05-01T11:01:10.961Z,3931.88
2019-05-01T11:02:11.156Z,2941.88
2019-05-01T11:03:11.363Z,2098.13
2019-05-01T11:04:11.552Z,1957.50
2019-05-01T11:05:11.754Z,1946.25
2019-05-01T11:06:11.947Z,1940.63
2019-05-01T11:07:12.149Z,1906.88
2019-05-01T11:08:12.351Z,1811.25
2019-05-01T11:09:12.580Z,1760.63
2019-05-01T11:10:12.805Z,1653.75
2019-05-01T11:11:13.010Z,1811.25
2019-05-01T11:12:13.209Z,1822.50
2019-05-01T11:13:13.409Z,1738.13
2019-05-01T11:14:13.619Z,1586.25
2019-05-01T11:15:13.810Z,1665.00
2019-05-01T11:16:14.011Z,1445.63
2019-05-01T11:17:14.433Z,1440.00
2019-05-01T11:18:14.516Z,1653.75
2019-05-01T11:19:14.643Z,1771.88
2019-05-01T11:20:14.855Z,1552.50
2019-05-01T11:21:15.079Z,1524.38
2019-05-01T11:22:15.280Z,1485.00
2019-05-01T11:23:15.472Z,1451.25
2019-05-01T11:24:15.666Z,1423.13
2019-05-01T11:25:15.861Z,1406.25
2019-05-01T11:26:16.058Z,1456.88
2019-05-01T11:27:16.253Z,1670.63
2019-05-01T11:28:16.448Z,1732.50
2019-05-01T11:29:16.639Z,1766.25
2019-05-01T11:30:16.867Z,1811.25
2019-05-01T11:31:17.064Z,1833.75
2019-05-01T11:32:17.257Z,1681.88
2019-05-01T11:33:17.495Z,1788.75
2019-05-01T11:34:17.690Z,1771.88
2019-05-01T11:35:17.893Z,1749.38
2019-05-01T11:36:18.079Z,1721.25
2019-05-01T11:37:18.280Z,1693.13
2019-05-01T11:38:18.477Z,1681.88
2019-05-01T11:39:18.682Z,1676.25
2019-05-01T11:40:18.887Z,1687.50
2019-05-01T11:41:19.090Z,1693.13
2019-05-01T11:42:19.271Z,1687.50
2019-05-01T11:43:19.474Z,1659.38
2019-05-01T11:44:19.672Z,1631.25
2019-05-01T11:45:19.871Z,1546.88
2019-05-01T11:46:20.074Z,1608.75
2019-05-01T11:47:20.269Z,1473.75
2019-05-01T11:48:20.466Z,1558.13
2019-05-01T11:49:20.667Z,1558.13
2019-05-01T11:50:20.857Z,1496.25
2019-05-01T11:51:21.055Z,1400.63
2019-05-01T11:52:21.265Z,1321.88
2019-05-01T11:53:21.453Z,1254.38
2019-05-01T11:54:21.656Z,1215.00
2019-05-01T11:55:21.865Z,1192.50
2019-05-01T11:56:22.074Z,1170.00
2019-05-01T11:57:22.267Z,1192.50
2019-05-01T11:58:22.458Z,1260.00
2019-05-01T11:59:22.673Z,1428.75
2019-05-01T12:00:22.840Z,1451.25
2019-05-01T12:01:23.035Z,1501.88
2019-05-01T12:02:23.238Z,1462.50
2019-05-01T12:03:23.432Z,1456.88
2019-05-01T12:04:23.625Z,1462.50
2019-05-01T12:05:23.825Z,1434.38
2019-05-01T12:06:24.027Z,1423.13
2019-05-01T12:07:24.208Z,1350.00
2019-05-01T12:08:24.411Z,1220.63
2019-05-01T12:09:24.624Z,1175.63
2019-05-01T12:10:24.819Z,1141.88
2019-05-01T12:11:25.027Z,1130.63
2019-05-01T12:12:25.213Z,1125.00
2019-05-01T12:13:25.407Z,1119.38
2019-05-01T12:14:25.611Z,1136.25
2019-05-01T12:15:25.829Z,1164.38
2019-05-01T12:16:26.031Z,1181.25
2019-05-01T12:17:26.228Z,1209.38
2019-05-01T12:18:26.433Z,1231.88
2019-05-01T12:19:26.631Z,1423.13
2019-05-01T12:20:26.820Z,1395.00
2019-05-01T12:21:27.003Z,1175.63
2019-05-01T12:22:27.224Z,1141.88
2019-05-01T12:23:27.432Z,1130.63
2019-05-01T12:24:27.672Z,1130.63
2019-05-01T12:25:27.916Z,1108.13
2019-05-01T12:26:28.070Z,1080.00
2019-05-01T12:27:28.305Z,1057.50
2019-05-01T12:28:28.492Z,1029.38
2019-05-01T12:29:28.707Z,1012.50
2019-05-01T12:30:28.903Z,1001.25
2019-05-01T12:31:31.241Z,1006.88
2019-05-01T12:32:29.316Z,1012.50
2019-05-01T12:33:29.516Z,1029.38
2019-05-01T12:34:29.700Z,1018.13
2019-05-01T12:35:29.903Z,1006.88
2019-05-01T12:36:36.518Z,995.63
2019-05-01T12:37:30.285Z,978.75
2019-05-01T12:38:30.524Z,973.13
2019-05-01T12:39:30.711Z,978.75